Time;durP1;ratioP1;P1;durP2;ratioP2;P2;SDS_P1;SDS_P2;PMS_P1;PMS_P2;Temp;Humidity;BMP_temperature;BMP_pressure;BME280_temperature;BME280_humidity;BME280_pressure;Samples;Min_cycle;Max_cycle;Signal;HPM_P1;HPM_P2
2024/02/26 00:01:45;;;;;;;24.50;14.30;;;;;;;4.06;80.99;98892.19;217623;1259;140315;-72
2024/02/26 00:06:51;;;;;;;24.60;14.50;;;;;;;4.14;81.20;98891.85;217699;1256;140059;-71
2024/02/26 00:11:55;;;;;;;39.60;16.60;;;;;;;4.18;81.12;98888.88;218024;1259;139699;-70
2024/02/26 00:17:00;;;;;;;37.10;18.40;;;;;;;4.22;81.47;98886.00;217743;1257;140941;-71
2024/02/26 00:22:04;;;;;;;42.60;21.20;;;;;;;4.24;81.70;98887.45;217511;1257;139419;-71
2024/02/26 00:27:08;;;;;;;39.60;20.40;;;;;;;4.30;81.80;98884.46;217810;1256;141090;-71
2024/02/26 00:32:12;;;;;;;36.40;17.10;;;;;;;4.38;81.98;98879.69;217888;1259;139443;-72
2024/02/26 00:37:15;;;;;;;28.70;16.00;;;;;;;4.43;81.94;98874.38;217414;1257;141064;-72
2024/02/26 00:42:19;;;;;;;41.40;19.00;;;;;;;4.44;81.93;98875.02;217657;1259;139920;-71
2024/02/26 00:47:23;;;;;;;29.40;18.10;;;;;;;4.46;82.38;98874.58;217706;1259;140909;-72
2024/02/26 00:52:28;;;;;;;25.50;15.30;;;;;;;4.43;82.18;98871.90;217443;1259;140836;-71
2024/02/26 00:57:31;;;;;;;31.60;16.60;;;;;;;4.43;82.65;98874.99;217580;1255;140651;-76
2024/02/26 01:02:35;;;;;;;36.80;18.40;;;;;;;4.48;82.81;98874.17;218023;1255;142483;-72
2024/02/26 01:07:39;;;;;;;29.30;12.10;;;;;;;4.52;82.89;98872.36;217685;1258;141485;-72
2024/02/26 01:12:44;;;;;;;23.60;12.90;;;;;;;4.52;83.03;98873.70;217626;1259;139810;-74
2024/02/26 01:17:48;;;;;;;29.00;15.00;;;;;;;4.58;83.40;98870.84;217592;1259;140274;-72
2024/02/26 01:22:51;;;;;;;25.90;13.30;;;;;;;4.63;83.23;98861.29;217346;1257;140019;-71
2024/02/26 01:27:55;;;;;;;26.30;13.10;;;;;;;4.66;83.41;98858.36;217723;1260;139979;-72
2024/02/26 01:32:59;;;;;;;16.50;9.40;;;;;;;4.69;83.46;98858.39;217983;1256;140503;-75
2024/02/26 01:38:04;;;;;;;16.90;10.50;;;;;;;4.67;83.06;98858.48;217869;1257;141011;-72
2024/02/26 01:43:08;;;;;;;23.70;11.10;;;;;;;4.65;82.71;98862.56;217601;1256;140338;-75
2024/02/26 01:48:12;;;;;;;19.40;10.90;;;;;;;4.63;82.91;98865.10;217465;1259;141181;-74
2024/02/26 01:53:17;;;;;;;16.50;10.50;;;;;;;4.59;82.84;98863.35;217555;1255;140705;-74
2024/02/26 01:58:21;;;;;;;17.30;10.90;;;;;;;4.59;82.88;98865.27;217578;1256;140649;-74
2024/02/26 02:03:26;;;;;;;19.50;11.80;;;;;;;4.57;82.95;98867.16;217573;1256;140443;-75
2024/02/26 02:08:30;;;;;;;24.50;12.30;;;;;;;4.58;82.62;98869.95;220459;1255;140469;-76
2024/02/26 02:13:34;;;;;;;17.00;10.80;;;;;;;4.57;82.86;98868.66;220087;1255;140463;-74
2024/02/26 02:18:40;;;;;;;17.90;10.80;;;;;;;4.55;82.45;98867.71;217668;1256;140695;-75
2024/02/26 02:23:46;;;;;;;22.90;11.60;;;;;;;4.53;82.58;98869.92;217483;1256;140138;-75
2024/02/26 02:28:50;;;;;;;25.00;13.50;;;;;;;4.49;82.52;98872.95;217529;1256;140921;-74
2024/02/26 02:33:54;;;;;;;22.70;12.50;;;;;;;4.44;82.43;98875.67;217579;1257;162883;-74
2024/02/26 02:38:59;;;;;;;26.50;14.30;;;;;;;4.36;82.32;98874.22;217399;1256;141570;-73
2024/02/26 02:44:03;;;;;;;20.30;13.50;;;;;;;4.28;82.56;98872.80;217504;1255;142168;-73
2024/02/26 02:49:10;;;;;;;23.30;13.90;;;;;;;4.22;82.36;98876.42;217391;1256;140665;-72
2024/02/26 02:54:15;;;;;;;23.80;12.80;;;;;;;4.14;82.27;98877.98;217510;1258;140159;-72
2024/02/26 02:59:19;;;;;;;19.70;11.10;;;;;;;4.03;82.33;98880.04;217651;1259;140696;-72
2024/02/26 03:04:23;;;;;;;27.10;14.40;;;;;;;3.91;82.32;98878.02;217512;1255;140467;-71
2024/02/26 03:09:27;;;;;;;25.10;15.50;;;;;;;3.82;82.39;98885.41;217553;1256;141371;-71
2024/02/26 03:14:31;;;;;;;25.80;15.40;;;;;;;3.75;82.52;98881.95;217566;1259;140880;-73
2024/02/26 03:19:35;;;;;;;23.40;14.60;;;;;;;3.70;82.62;98880.19;217535;1260;140554;-72
2024/02/26 03:24:40;;;;;;;26.30;15.60;;;;;;;3.66;82.99;98879.38;217568;1260;139879;-72
2024/02/26 03:29:44;;;;;;;22.90;14.20;;;;;;;3.64;83.12;98875.78;217402;1256;141024;-74
2024/02/26 03:34:47;;;;;;;28.90;14.80;;;;;;;3.64;83.27;98876.23;217582;1255;140026;-72
2024/02/26 03:39:52;;;;;;;27.50;16.80;;;;;;;3.67;83.57;98880.93;217749;1258;210133;-73
2024/02/26 03:44:56;;;;;;;28.30;17.00;;;;;;;3.71;83.71;98881.77;217420;1256;140710;-74
2024/02/26 03:50:00;;;;;;;25.30;14.50;;;;;;;3.75;83.88;98883.17;218689;1256;140805;-73
2024/02/26 03:55:04;;;;;;;24.60;16.30;;;;;;;3.82;84.04;98877.70;217502;1260;142265;-72
2024/02/26 04:00:09;;;;;;;23.30;14.10;;;;;;;3.89;84.23;98871.10;218877;1255;140587;-73
2024/02/26 04:05:13;;;;;;;23.10;13.80;;;;;;;3.96;84.32;98874.02;220255;1256;140609;-73
2024/02/26 04:10:18;;;;;;;26.00;17.40;;;;;;;4.04;84.25;98876.91;217558;1255;140519;-72
2024/02/26 04:15:22;;;;;;;30.80;17.40;;;;;;;4.10;84.28;98878.86;217262;1260;140036;-71
2024/02/26 04:20:26;;;;;;;25.20;15.70;;;;;;;4.13;84.26;98877.75;217588;1256;142134;-74
2024/02/26 04:25:30;;;;;;;24.50;13.90;;;;;;;4.14;84.48;98877.13;217489;1256;140036;-70
2024/02/26 04:30:34;;;;;;;35.20;15.70;;;;;;;4.14;84.48;98875.30;217661;1255;139710;-70
2024/02/26 04:35:38;;;;;;;29.30;18.10;;;;;;;4.13;84.36;98873.69;217330;1256;139567;-71
2024/02/26 04:40:43;;;;;;;31.90;18.70;;;;;;;4.12;84.48;98878.64;217619;1260;140742;-72
2024/02/26 04:45:47;;;;;;;27.50;18.40;;;;;;;4.10;84.32;98870.49;217540;1260;140525;-71
2024/02/26 04:50:52;;;;;;;30.30;19.40;;;;;;;4.08;84.51;98870.19;217540;1260;142544;-71
2024/02/26 04:55:56;;;;;;;26.50;15.80;;;;;;;4.07;84.38;98870.14;217460;1256;139913;-71
2024/02/26 05:01:00;;;;;;;29.50;17.10;;;;;;;4.05;84.36;98870.94;217493;1256;140803;-71
2024/02/26 05:06:05;;;;;;;24.40;15.20;;;;;;;4.04;84.48;98872.52;218085;1255;140094;-73
2024/02/26 05:11:09;;;;;;;26.90;18.00;;;;;;;4.04;84.65;98871.99;217590;1255;141407;-72
2024/02/26 05:16:14;;;;;;;30.30;17.50;;;;;;;4.02;84.58;98874.27;217764;1256;139961;-72
2024/02/26 05:21:17;;;;;;;33.10;17.70;;;;;;;4.04;84.70;98879.23;217481;1260;140854;-73
2024/02/26 05:26:22;;;;;;;30.70;17.70;;;;;;;4.05;84.71;98887.45;217707;1256;140856;-71
2024/02/26 05:31:27;;;;;;;30.80;18.60;;;;;;;4.07;84.80;98892.26;217495;1256;140113;-71
2024/02/26 05:36:33;;;;;;;30.00;16.80;;;;;;;4.08;84.74;98896.20;218611;1256;140195;-74
2024/02/26 05:41:37;;;;;;;24.00;15.20;;;;;;;4.11;84.94;98900.31;218325;1256;140620;-74
2024/02/26 05:46:42;;;;;;;25.30;15.90;;;;;;;4.16;84.93;98905.95;220292;1255;140372;-76
2024/02/26 05:51:45;;;;;;;25.10;15.50;;;;;;;4.22;84.72;98911.33;220454;1255;140165;-75
2024/02/26 05:56:49;;;;;;;23.60;13.40;;;;;;;4.30;84.70;98917.70;219915;1255;140912;-73
2024/02/26 06:01:54;;;;;;;20.20;11.70;;;;;;;4.42;84.60;98914.83;219193;1256;142729;-74
2024/02/26 06:06:57;;;;;;;22.40;13.70;;;;;;;4.54;84.74;98918.77;217501;1256;140802;-74
2024/02/26 06:12:03;;;;;;;21.30;13.60;;;;;;;4.64;84.59;98925.81;217358;1256;140982;-72
2024/02/26 06:17:08;;;;;;;29.70;15.70;;;;;;;4.71;84.84;98931.84;217790;1255;139785;-73
2024/02/26 06:22:13;;;;;;;24.20;15.80;;;;;;;4.79;84.50;98931.62;217496;1256;140744;-73
2024/02/26 06:27:18;;;;;;;20.10;13.10;;;;;;;4.89;84.68;98930.23;217551;1255;141118;-73
2024/02/26 06:32:23;;;;;;;23.30;13.30;;;;;;;5.04;84.71;98929.55;217753;1256;140026;-73
2024/02/26 06:37:27;;;;;;;27.80;15.30;;;;;;;5.22;84.97;98941.84;217626;1256;140168;-73
2024/02/26 06:42:32;;;;;;;34.20;15.60;;;;;;;5.42;84.59;98942.06;218361;1256;139979;-74
2024/02/26 06:47:36;;;;;;;20.50;13.70;;;;;;;5.65;84.63;98939.97;217764;1256;141307;-73
2024/02/26 06:52:40;;;;;;;27.60;13.50;;;;;;;5.79;84.14;98944.02;217491;1256;140152;-72
2024/02/26 06:57:44;;;;;;;20.70;13.10;;;;;;;5.82;83.87;98945.45;217564;1258;140046;-73
2024/02/26 07:02:48;;;;;;;24.10;12.60;;;;;;;5.86;84.07;98945.59;217695;1256;140078;-77
2024/02/26 07:07:52;;;;;;;21.20;12.30;;;;;;;5.92;83.46;98948.68;217755;1256;140578;-73
2024/02/26 07:12:56;;;;;;;25.20;14.70;;;;;;;6.03;83.83;98958.02;217609;1259;142395;-73
2024/02/26 07:18:03;;;;;;;22.00;12.80;;;;;;;6.52;84.12;98954.88;217440;1256;140578;-74
2024/02/26 07:23:07;;;;;;;30.10;15.60;;;;;;;7.68;83.89;98951.30;218638;1256;140223;-74
2024/02/26 07:28:11;;;;;;;28.50;14.50;;;;;;;9.04;83.07;98951.31;217978;1256;140336;-76
2024/02/26 07:33:14;;;;;;;20.30;12.40;;;;;;;10.31;81.59;98953.02;217015;1255;773167;-75
2024/02/26 07:38:18;;;;;;;23.30;11.40;;;;;;;11.27;79.40;98956.27;217487;1256;140420;-75
2024/02/26 07:43:39;;;;;;;17.30;12.70;;;;;;;11.90;77.68;98957.80;217767;1256;141442;-78
2024/02/26 07:48:43;;;;;;;22.20;12.70;;;;;;;12.16;75.99;98962.13;217503;1256;140612;-77
2024/02/26 07:53:48;;;;;;;18.40;11.30;;;;;;;12.29;75.18;98963.77;217605;1256;140359;-76
2024/02/26 07:58:52;;;;;;;19.20;10.30;;;;;;;12.54;75.02;98961.42;217641;1256;141808;-77
2024/02/26 08:03:59;;;;;;;15.90;11.50;;;;;;;12.61;73.23;98967.36;217580;1256;142884;-76
2024/02/26 08:09:04;;;;;;;15.10;11.40;;;;;;;12.41;72.93;98964.04;217508;1259;139923;-76
2024/02/26 08:14:11;;;;;;;16.30;10.50;;;;;;;12.40;72.64;98965.79;217763;1256;140095;-74
2024/02/26 08:19:17;;;;;;;19.90;11.70;;;;;;;12.15;71.56;98967.77;217497;1256;139573;-78
2024/02/26 08:24:22;;;;;;;17.10;10.80;;;;;;;12.07;71.85;98972.19;217577;1256;139809;-75
2024/02/26 08:29:27;;;;;;;13.60;9.40;;;;;;;12.14;71.96;98969.65;217539;1258;140678;-78
2024/02/26 08:34:31;;;;;;;15.50;9.70;;;;;;;12.35;72.19;98970.16;217434;1256;139743;-75
2024/02/26 08:39:39;;;;;;;15.70;11.20;;;;;;;12.40;71.10;98966.96;217365;1256;141164;-75
2024/02/26 08:44:43;;;;;;;14.30;11.00;;;;;;;12.35;70.70;98969.68;217557;1256;141391;-78
2024/02/26 08:49:47;;;;;;;10.50;9.10;;;;;;;12.57;71.38;98970.88;217744;1258;140560;-78
2024/02/26 08:54:51;;;;;;;15.90;8.70;;;;;;;12.81;71.35;98974.21;217637;1259;140038;-76
2024/02/26 08:59:55;;;;;;;10.50;8.00;;;;;;;13.03;70.51;98969.56;218429;1255;139965;-78
2024/02/26 09:04:59;;;;;;;8.90;7.10;;;;;;;13.14;70.03;98972.71;217725;1255;139570;-78
2024/02/26 09:10:05;;;;;;;11.40;8.20;;;;;;;13.41;70.24;98966.62;217869;1256;139140;-74
2024/02/26 09:15:09;;;;;;;9.10;6.70;;;;;;;13.67;69.53;98964.41;217703;1255;139618;-77
2024/02/26 09:20:14;;;;;;;6.70;6.00;;;;;;;13.78;68.53;98964.48;217846;1256;141233;-78
2024/02/26 09:25:19;;;;;;;18.90;8.90;;;;;;;13.86;67.18;98962.51;217832;1256;140303;-75
2024/02/26 09:30:23;;;;;;;10.40;7.40;;;;;;;13.87;67.08;98966.04;217712;1256;140066;-75
2024/02/26 09:35:27;;;;;;;8.80;6.30;;;;;;;13.83;66.05;98963.15;217959;1259;139502;-78
2024/02/26 09:40:31;;;;;;;9.10;7.00;;;;;;;13.94;66.04;98967.52;217687;1256;139513;-78
2024/02/26 09:45:36;;;;;;;10.00;5.50;;;;;;;14.12;65.89;98967.67;217869;1256;140182;-77
2024/02/26 09:50:42;;;;;;;11.90;6.60;;;;;;;14.37;65.69;98965.02;218061;1256;140151;-77
2024/02/26 09:55:46;;;;;;;7.40;5.80;;;;;;;14.49;64.93;98959.07;217785;1256;139208;-76
2024/02/26 10:00:56;;;;;;;7.30;5.70;;;;;;;14.64;64.57;98959.77;217753;1256;140112;-76
2024/02/26 10:06:16;;;;;;;6.20;5.60;;;;;;;14.74;63.63;98962.64;218198;1256;139174;-77
2024/02/26 10:11:22;;;;;;;13.00;7.20;;;;;;;14.75;63.10;98961.60;217804;1256;139269;-76
2024/02/26 10:16:26;;;;;;;6.40;4.40;;;;;;;14.91;62.97;98966.15;217725;1258;140450;-76
2024/02/26 10:21:31;;;;;;;6.70;5.30;;;;;;;15.00;62.09;98966.06;217734;1257;139770;-76
2024/02/26 10:26:35;;;;;;;4.60;4.00;;;;;;;15.08;61.17;98959.65;217918;1256;139755;-77
2024/02/26 10:31:42;;;;;;;6.60;4.20;;;;;;;15.05;60.53;98965.59;217935;1256;139981;-80
2024/02/26 10:36:46;;;;;;;;;;;;;;;15.13;60.67;98965.20;217718;1255;139754;-77
2024/02/26 10:41:57;;;;;;;7.50;3.20;;;;;;;15.22;59.98;98963.52;218343;1260;130782;-77
2024/02/26 10:47:01;;;;;;;4.80;2.90;;;;;;;15.08;58.13;98966.96;217464;1256;139171;-76
2024/02/26 10:52:07;;;;;;;3.30;3.00;;;;;;;14.92;58.11;98963.57;217760;1256;140733;-76
2024/02/26 10:57:11;;;;;;;2.90;2.70;;;;;;;15.13;58.49;98968.36;217555;1256;139322;-76
2024/02/26 11:02:16;;;;;;;8.30;4.10;;;;;;;15.26;57.88;98953.69;217453;1256;140493;-76
2024/02/26 11:07:20;;;;;;;3.90;2.80;;;;;;;15.45;58.14;98950.48;217348;1256;140076;-75
2024/02/26 11:12:25;;;;;;;6.30;3.30;;;;;;;15.60;57.55;98956.88;217823;1257;140390;-77
2024/02/26 11:17:32;;;;;;;3.30;2.90;;;;;;;15.58;56.39;98953.41;217610;1256;139878;-73
2024/02/26 11:22:36;;;;;;;;;;;;;;;15.46;55.96;98945.73;217624;1257;138934;-77
2024/02/26 11:27:44;;;;;;;5.40;4.00;;;;;;;15.41;56.16;98938.80;217823;1256;126648;-76
2024/02/26 11:32:48;;;;;;;4.50;4.00;;;;;;;15.46;56.07;98939.83;217495;1256;140988;-74
2024/02/26 11:37:56;;;;;;;14.30;4.90;;;;;;;15.51;56.36;98939.09;217335;1256;139482;-76
2024/02/26 11:43:00;;;;;;;4.80;4.30;;;;;;;15.58;55.99;98937.80;218889;1258;140641;-78
2024/02/26 11:48:04;;;;;;;6.50;4.70;;;;;;;15.57;55.76;98935.39;218085;1258;140109;-76
2024/02/26 11:53:28;;;;;;;3.60;3.20;;;;;;;15.58;55.88;98937.95;217212;1256;141098;-75
2024/02/26 11:58:32;;;;;;;4.70;4.00;;;;;;;15.44;54.97;98941.46;217586;1258;141462;-76
2024/02/26 12:03:38;;;;;;;5.50;4.80;;;;;;;15.32;55.41;98941.58;217558;1258;140467;-75
2024/02/26 12:08:44;;;;;;;3.70;3.40;;;;;;;15.36;55.56;98940.47;217506;1256;140701;-75
2024/02/26 12:13:51;;;;;;;7.20;4.50;;;;;;;15.37;55.58;98941.10;217360;1258;139337;-75
2024/02/26 12:18:56;;;;;;;5.50;4.20;;;;;;;15.26;55.19;98934.85;217351;1257;143719;-79
2024/02/26 12:24:11;;;;;;;7.00;4.90;;;;;;;15.34;55.94;98940.48;217566;1257;140195;-75
2024/02/26 12:29:16;;;;;;;10.20;6.20;;;;;;;15.46;56.11;98941.92;217634;1259;139327;-80
2024/02/26 12:34:20;;;;;;;6.80;5.90;;;;;;;15.49;56.32;98943.94;217253;1256;140214;-75
2024/02/26 12:39:25;;;;;;;5.00;4.40;;;;;;;15.49;56.38;98943.02;217149;1259;139977;-75
2024/02/26 12:44:29;;;;;;;3.70;3.00;;;;;;;15.41;55.75;98939.61;217335;1256;140356;-75
2024/02/26 12:49:33;;;;;;;5.20;4.60;;;;;;;15.48;55.76;98938.58;217291;1259;140213;-75
2024/02/26 12:54:41;;;;;;;5.70;4.20;;;;;;;15.38;55.62;98937.86;217331;1256;139063;-77
2024/02/26 12:59:46;;;;;;;7.60;5.70;;;;;;;15.34;55.96;98946.67;217230;1256;139340;-75
2024/02/26 13:04:50;;;;;;;5.60;5.00;;;;;;;15.21;56.02;98939.46;217298;1259;140363;-77
2024/02/26 13:09:54;;;;;;;6.60;4.80;;;;;;;15.26;56.31;98942.21;217193;1257;139716;-74
2024/02/26 13:15:02;;;;;;;4.70;4.00;;;;;;;15.26;56.13;98945.80;217336;1259;139164;-74
2024/02/26 13:20:12;;;;;;;5.00;4.00;;;;;;;15.13;55.83;98943.83;217154;1260;139652;-74
2024/02/26 13:25:20;;;;;;;7.20;3.10;;;;;;;14.98;55.74;98941.45;217251;1259;140670;-73
2024/02/26 13:30:27;;;;;;;5.00;3.40;;;;;;;14.89;55.59;98941.86;217808;1259;140522;-77
2024/02/26 13:35:33;;;;;;;4.00;3.30;;;;;;;14.81;55.90;98939.34;217302;1259;139342;-77
2024/02/26 13:40:36;;;;;;;5.80;4.50;;;;;;;14.76;55.79;98937.46;217350;1256;140874;-75
2024/02/26 13:45:41;;;;;;;6.50;3.50;;;;;;;14.56;55.31;98937.73;217219;1257;141172;-75
2024/02/26 13:50:45;;;;;;;2.80;2.70;;;;;;;14.42;55.25;98936.31;217283;1260;140640;-75
2024/02/26 13:55:50;;;;;;;5.70;3.60;;;;;;;14.27;55.25;98942.03;217363;1260;140229;-75
2024/02/26 14:00:55;;;;;;;8.90;6.70;;;;;;;14.20;55.79;98948.34;217512;1260;139342;-76
2024/02/26 14:05:59;;;;;;;3.10;2.80;;;;;;;14.22;55.98;98949.25;217408;1260;140734;-77
2024/02/26 14:11:03;;;;;;;3.40;2.90;;;;;;;14.18;55.58;98952.42;217322;1260;141532;-75
2024/02/26 14:16:10;;;;;;;2.50;2.30;;;;;;;13.99;55.19;98949.21;217545;1260;139931;-75
2024/02/26 14:21:52;;;;;;;6.60;2.70;;;;;;;13.87;55.08;98949.96;217402;1257;236292;-74
2024/02/26 14:26:55;;;;;;;3.80;3.40;;;;;;;13.76;55.32;98955.64;217757;1260;139890;-76
2024/02/26 14:31:59;;;;;;;3.90;3.10;;;;;;;13.72;55.86;98948.70;217355;1260;139979;-77
2024/02/26 14:37:04;;;;;;;5.80;4.10;;;;;;;13.70;56.22;98951.23;217107;1256;139927;-72
2024/02/26 14:42:08;;;;;;;5.80;3.70;;;;;;;13.63;56.50;98959.70;217529;1255;139589;-75
2024/02/26 14:47:12;;;;;;;6.90;5.30;;;;;;;13.50;56.84;98956.37;217410;1257;140789;-75
2024/02/26 14:52:17;;;;;;;7.30;5.40;;;;;;;13.36;57.75;98959.15;217586;1257;139855;-76
2024/02/26 14:57:21;;;;;;;5.90;4.70;;;;;;;13.19;58.65;98954.61;217541;1255;138911;-77
2024/02/26 15:02:24;;;;;;;10.60;6.40;;;;;;;13.06;59.62;98960.94;217366;1259;139370;-75
2024/02/26 15:07:27;;;;;;;8.40;6.60;;;;;;;12.97;60.34;98960.73;217572;1260;140136;-75
2024/02/26 15:12:32;;;;;;;11.30;6.00;;;;;;;12.91;60.97;98949.59;218383;1257;139703;-75
2024/02/26 15:17:36;;;;;;;11.00;8.50;;;;;;;12.86;61.56;98958.48;218120;1256;140544;-75
2024/02/26 15:22:42;;;;;;;11.20;8.90;;;;;;;12.78;62.12;98958.29;217522;1260;139128;-74
2024/02/26 15:27:45;;;;;;;6.10;4.90;;;;;;;12.72;62.72;98966.73;217630;1257;140619;-78
2024/02/26 15:32:49;;;;;;;15.00;8.90;;;;;;;12.63;63.11;98967.04;218515;1258;140282;-73
2024/02/26 15:37:52;;;;;;;15.80;9.50;;;;;;;12.59;63.69;98966.66;217754;1257;140562;-75
2024/02/26 15:42:56;;;;;;;9.40;6.00;;;;;;;12.49;63.81;98965.91;217980;1257;140730;-74
2024/02/26 15:48:00;;;;;;;8.90;6.40;;;;;;;12.34;64.05;98967.11;219408;1256;139426;-73
2024/02/26 15:53:04;;;;;;;10.50;7.00;;;;;;;12.22;64.32;98970.63;218204;1257;139430;-74
2024/02/26 15:58:09;;;;;;;16.60;9.60;;;;;;;12.17;64.85;98968.85;217836;1257;140482;-75
2024/02/26 16:03:13;;;;;;;12.30;8.60;;;;;;;12.11;65.17;98969.38;217505;1260;140401;-75
2024/02/26 16:08:22;;;;;;;18.10;8.00;;;;;;;12.02;65.20;98971.84;217812;1258;141282;-72
2024/02/26 16:13:26;;;;;;;19.80;8.90;;;;;;;11.93;65.67;98979.24;217442;1260;140754;-74
2024/02/26 16:18:30;;;;;;;9.90;8.80;;;;;;;11.83;65.96;98982.04;217521;1260;140410;-74
2024/02/26 16:23:34;;;;;;;12.20;8.90;;;;;;;11.75;66.11;98990.54;217362;1257;141001;-72
2024/02/26 16:28:38;;;;;;;12.30;8.40;;;;;;;11.67;66.33;98989.61;217447;1257;141493;-73
2024/02/26 16:33:41;;;;;;;16.50;8.70;;;;;;;11.58;66.68;98989.05;217407;1257;142028;-76
2024/02/26 16:38:46;;;;;;;15.10;11.40;;;;;;;11.44;67.01;98994.89;217773;1257;141033;-77
2024/02/26 16:43:50;;;;;;;14.80;10.70;;;;;;;11.30;66.96;99000.30;217400;1258;141042;-78
2024/02/26 16:48:54;;;;;;;17.60;11.70;;;;;;;11.18;67.50;98995.68;217757;1257;141856;-75
2024/02/26 16:54:07;;;;;;;23.30;12.10;;;;;;;11.10;67.61;99001.01;217345;1260;145488;-75
2024/02/26 16:59:13;;;;;;;23.00;13.70;;;;;;;11.02;68.19;98996.64;217382;1257;140271;-76
2024/02/26 17:04:17;;;;;;;18.30;13.70;;;;;;;10.96;68.11;99006.31;217590;1257;140686;-75
2024/02/26 17:09:22;;;;;;;22.60;14.30;;;;;;;10.88;68.54;99008.54;217674;1257;141184;-78
2024/02/26 17:14:31;;;;;;;25.30;14.00;;;;;;;10.79;68.91;99015.38;218841;1257;142737;-76
2024/02/26 17:19:44;;;;;;;22.10;14.50;;;;;;;10.71;69.13;99019.53;218297;1257;140866;-74
2024/02/26 17:24:49;;;;;;;28.20;16.10;;;;;;;10.65;69.52;99021.51;217504;1256;140042;-75
2024/02/26 17:30:01;;;;;;;17.40;11.40;;;;;;;10.56;69.90;99028.13;217386;1259;140517;-76
2024/02/26 17:35:06;;;;;;;18.80;13.30;;;;;;;10.49;70.14;99036.84;218393;1256;141080;-76
2024/02/26 17:40:11;;;;;;;20.70;12.30;;;;;;;10.40;70.48;99034.14;217998;1255;141589;-74
2024/02/26 17:45:17;;;;;;;19.80;12.00;;;;;;;10.34;71.10;99034.95;219808;1257;142476;-75
2024/02/26 17:50:24;;;;;;;19.90;13.10;;;;;;;10.31;71.46;99031.07;217508;1259;140481;-75
2024/02/26 17:55:29;;;;;;;18.20;13.00;;;;;;;10.29;71.71;99028.74;219223;1255;141758;-77
2024/02/26 18:00:33;;;;;;;18.40;13.00;;;;;;;10.24;72.29;99034.82;217546;1257;141825;-75
2024/02/26 18:05:45;;;;;;;25.50;14.20;;;;;;;10.19;72.66;99036.93;217402;1256;142801;-75
2024/02/26 18:10:49;;;;;;;23.70;15.40;;;;;;;10.15;72.73;99041.60;217217;1260;140715;-74
2024/02/26 18:15:52;;;;;;;18.40;11.00;;;;;;;10.11;73.21;99041.98;217231;1259;140723;-74
2024/02/26 18:20:56;;;;;;;18.10;11.60;;;;;;;10.07;73.52;99043.23;217126;1256;140122;-75
2024/02/26 18:25:59;;;;;;;18.40;10.80;;;;;;;10.02;73.68;99044.65;217273;1259;140454;-74
2024/02/26 18:31:03;;;;;;;14.30;10.30;;;;;;;9.96;74.27;99046.23;217160;1259;141034;-75
2024/02/26 18:36:08;;;;;;;16.00;10.80;;;;;;;9.90;74.19;99045.51;217464;1256;140742;-74
2024/02/26 18:41:23;;;;;;;22.40;12.30;;;;;;;9.84;74.59;99045.73;217187;1257;140241;-74
2024/02/26 18:46:27;;;;;;;19.80;12.10;;;;;;;9.79;74.84;99045.21;216984;1255;140355;-74
2024/02/26 18:51:31;;;;;;;19.50;12.60;;;;;;;9.77;75.39;99041.16;217330;1256;140326;-74
2024/02/26 18:56:35;;;;;;;19.50;12.80;;;;;;;9.79;75.74;99040.73;217417;1256;139876;-76
2024/02/26 19:01:39;;;;;;;17.00;11.90;;;;;;;9.84;76.16;99042.02;217213;1256;141944;-77
2024/02/26 19:06:46;;;;;;;21.90;11.90;;;;;;;9.90;76.54;99041.46;217227;1256;141364;-77
2024/02/26 19:11:52;;;;;;;28.40;14.00;;;;;;;9.98;76.79;99039.48;217079;1255;140923;-74
2024/02/26 19:16:56;;;;;;;24.40;15.50;;;;;;;10.03;77.10;99039.98;217228;1255;141913;-76
2024/02/26 19:22:00;;;;;;;23.70;15.50;;;;;;;10.06;77.31;99044.40;217183;1256;140922;-78
2024/02/26 19:27:04;;;;;;;18.40;12.40;;;;;;;10.07;77.37;99047.76;219250;1255;140665;-77
2024/02/26 19:32:11;;;;;;;22.00;14.60;;;;;;;10.01;77.46;99061.05;218779;1256;292122;-76
2024/02/26 19:37:15;;;;;;;38.60;19.20;;;;;;;9.95;78.01;99059.42;218697;1255;141234;-74
2024/02/26 19:42:19;;;;;;;36.80;21.80;;;;;;;9.89;78.00;99067.31;219324;1255;140804;-74
2024/02/26 19:47:24;;;;;;;34.90;20.40;;;;;;;9.80;77.94;99066.69;217324;1256;140506;-75
2024/02/26 19:52:28;;;;;;;32.50;19.50;;;;;;;9.72;77.98;99068.23;217745;1256;140080;-74
2024/02/26 19:57:34;;;;;;;34.50;20.00;;;;;;;9.64;78.34;99071.79;217174;1256;140413;-74
2024/02/26 20:02:41;;;;;;;30.30;18.10;;;;;;;9.57;78.74;99069.77;217368;1256;140382;-74
2024/02/26 20:07:45;;;;;;;37.30;18.80;;;;;;;9.49;78.75;99069.23;217153;1260;140063;-74
2024/02/26 20:12:52;;;;;;;30.40;19.00;;;;;;;9.41;78.89;99077.67;217328;1256;140377;-74
2024/02/26 20:17:56;;;;;;;42.20;23.10;;;;;;;9.33;78.98;99081.17;217250;1255;141639;-74
2024/02/26 20:23:00;;;;;;;35.60;20.50;;;;;;;9.24;79.17;99083.98;217287;1256;153337;-73
2024/02/26 20:28:05;;;;;;;41.30;20.80;;;;;;;9.13;79.44;99085.64;217166;1256;139910;-73
2024/02/26 20:33:09;;;;;;;27.10;16.70;;;;;;;9.09;79.99;99089.29;217308;1255;139836;-73
2024/02/26 20:38:13;;;;;;;27.20;14.70;;;;;;;9.08;80.47;99091.09;217246;1260;140880;-74
2024/02/26 20:43:18;;;;;;;22.70;15.00;;;;;;;9.12;80.93;99089.92;217299;1256;140403;-74
2024/02/26 20:48:24;;;;;;;21.80;15.50;;;;;;;9.14;81.36;99095.65;217243;1258;141566;-74
2024/02/26 20:53:28;;;;;;;25.10;17.10;;;;;;;9.15;81.63;99098.27;217206;1260;140800;-75
2024/02/26 20:58:32;;;;;;;27.00;16.20;;;;;;;9.17;81.88;99105.80;217323;1256;140910;-79
2024/02/26 21:03:39;;;;;;;27.90;17.50;;;;;;;9.18;82.03;99117.70;217402;1256;140250;-76
2024/02/26 21:08:45;;;;;;;27.30;16.20;;;;;;;9.16;82.11;99119.02;217508;1256;140289;-73
2024/02/26 21:13:49;;;;;;;30.10;18.10;;;;;;;9.14;82.20;99125.91;217255;1257;139915;-73
2024/02/26 21:18:54;;;;;;;26.60;17.20;;;;;;;9.10;82.37;99130.09;217216;1256;141088;-74
2024/02/26 21:23:59;;;;;;;28.20;18.10;;;;;;;9.05;82.54;99136.61;217267;1256;142747;-75
2024/02/26 21:29:08;;;;;;;;;;;;;;;9.00;82.58;99144.91;219507;1256;142047;-74
2024/02/26 21:34:17;;;;;;;26.90;15.70;;;;;;;8.93;82.66;99149.81;218691;1255;126636;-75
2024/02/26 21:39:21;;;;;;;35.50;18.40;;;;;;;8.86;82.96;99156.51;217804;1257;141184;-77
2024/02/26 21:44:24;;;;;;;24.50;16.50;;;;;;;8.82;82.98;99157.77;217702;1259;140266;-76
2024/02/26 21:49:30;;;;;;;35.70;18.30;;;;;;;8.74;83.08;99163.02;217572;1255;141390;-74
2024/02/26 21:54:35;;;;;;;32.30;18.00;;;;;;;8.65;83.31;99165.77;217839;1260;141619;-74
2024/02/26 21:59:39;;;;;;;28.80;19.10;;;;;;;8.56;83.46;99165.70;217375;1258;140922;-73
2024/02/26 22:04:43;;;;;;;33.50;19.80;;;;;;;8.47;83.45;99168.40;217462;1258;140071;-76
2024/02/26 22:09:47;;;;;;;30.20;21.10;;;;;;;8.38;83.36;99171.86;217474;1255;140470;-75
2024/02/26 22:14:51;;;;;;;31.20;18.00;;;;;;;8.24;83.03;99176.16;217800;1256;140603;-74
2024/02/26 22:19:55;;;;;;;31.00;20.20;;;;;;;8.10;83.42;99183.73;217536;1257;139804;-75
2024/02/26 22:25:00;;;;;;;28.20;17.80;;;;;;;8.01;83.38;99181.77;217809;1256;140175;-76
2024/02/26 22:30:06;;;;;;;31.90;19.60;;;;;;;7.91;83.85;99185.27;217467;1255;140060;-73
2024/02/26 22:35:11;;;;;;;30.30;19.10;;;;;;;7.83;84.03;99190.16;217640;1255;140177;-75
2024/02/26 22:40:15;;;;;;;32.20;20.50;;;;;;;7.75;84.03;99193.96;218061;1256;139933;-74
2024/02/26 22:45:19;;;;;;;33.40;20.40;;;;;;;7.65;83.81;99192.29;217566;1256;140039;-76
2024/02/26 22:50:24;;;;;;;32.30;21.50;;;;;;;7.57;83.69;99195.29;220107;1256;140474;-74
2024/02/26 22:55:27;;;;;;;33.90;22.50;;;;;;;7.41;83.11;99191.01;217724;1255;141213;-73
2024/02/26 23:00:35;;;;;;;29.50;19.10;;;;;;;7.23;83.10;99195.31;217665;1256;139830;-72
2024/02/26 23:05:40;;;;;;;32.70;19.80;;;;;;;7.07;83.44;99198.55;217550;1256;140624;-73
2024/02/26 23:10:44;;;;;;;31.70;19.20;;;;;;;6.97;83.72;99206.94;218312;1256;140606;-72